Time;durP1;ratioP1;P1;durP2;ratioP2;P2;SDS_P1;SDS_P2;PMS_P1;PMS_P2;Temp;Humidity;BMP_temperature;BMP_pressure;BME280_temperature;BME280_humidity;BME280_pressure;Samples;Min_cycle;Max_cycle;Signal;HPM_P1;HPM_P2
2022/06/05 00:01:53;;;;;;;12.32;11.32;;;20.10;99.90;;;;;;5031489;28;20575;-82
2022/06/05 00:05:10;;;;;;;12.85;10.88;;;20.00;99.90;;;;;;5030371;28;20255;-81
2022/06/05 00:08:03;;;;;;;15.23;12.15;;;20.10;99.90;;;;;;5005141;28;20191;-82
2022/06/05 00:10:56;;;;;;;11.82;10.70;;;20.00;99.90;;;;;;5030399;28;20168;-82
2022/06/05 00:13:40;;;;;;;12.77;11.60;;;19.70;99.90;;;;;;5027653;28;20266;-81
2022/06/05 00:16:06;;;;;;;11.95;10.98;;;19.70;99.90;;;;;;5033850;28;20539;-81
2022/06/05 00:18:34;;;;;;;13.30;11.77;;;19.70;99.90;;;;;;5033772;28;20188;-81
2022/06/05 00:20:59;;;;;;;13.60;12.35;;;19.60;99.90;;;;;;5033594;28;20219;-81
2022/06/05 00:23:25;;;;;;;13.25;12.02;;;19.50;99.90;;;;;;5035167;28;20164;-82
2022/06/05 00:25:55;;;;;;;14.70;11.30;;;19.40;99.90;;;;;;5033809;28;20171;-81
2022/06/05 00:29:02;;;;;;;11.90;10.80;;;19.30;99.90;;;;;;5033424;28;20214;-82
2022/06/05 00:31:38;;;;;;;17.73;12.05;;;19.20;99.90;;;;;;5025475;28;20200;-81
2022/06/05 00:34:04;;;;;;;12.82;11.65;;;19.30;99.90;;;;;;5034963;28;20186;-81
2022/06/05 00:37:15;;;;;;;12.32;11.18;;;19.20;99.90;;;;;;5033620;28;20168;-81
2022/06/05 00:40:05;;;;;;;12.02;10.93;;;19.40;99.90;;;;;;5032511;28;20553;-81
2022/06/05 00:42:33;;;;;;;12.20;11.07;;;19.50;99.90;;;;;;5034785;28;20180;-82
2022/06/05 00:45:06;;;;;;;12.23;11.25;;;19.40;99.90;;;;;;5034392;28;20160;-81
2022/06/05 00:47:32;;;;;;;11.98;10.98;;;19.40;99.90;;;;;;5034513;28;20164;-80
2022/06/05 00:50:10;;;;;;;12.77;11.38;;;19.40;99.90;;;;;;5033180;28;20549;-82
2022/06/05 00:52:42;;;;;;;11.60;10.70;;;19.50;99.90;;;;;;5033253;28;20171;-81
2022/06/05 00:55:09;;;;;;;14.00;11.02;;;19.50;99.90;;;;;;5033155;28;20575;-81
2022/06/05 00:57:37;;;;;;;12.52;11.30;;;19.40;99.90;;;;;;5033199;28;20214;-81
2022/06/05 01:00:13;;;;;;;10.65;9.95;;;19.40;99.90;;;;;;5033199;28;20257;-82
2022/06/05 01:02:41;;;;;;;12.30;11.10;;;19.40;99.90;;;;;;5033090;28;20521;-81
2022/06/05 01:05:09;;;;;;;12.65;11.63;;;19.50;99.90;;;;;;5032738;28;20164;-82
2022/06/05 01:07:34;;;;;;;15.77;11.32;;;19.60;99.90;;;;;;5032871;28;20234;-82
2022/06/05 01:10:00;;;;;;;11.63;10.45;;;19.70;99.90;;;;;;5033144;28;20652;-82
2022/06/05 01:12:35;;;;;;;11.35;10.35;;;19.70;99.90;;;;;;5032916;28;20621;-81
2022/06/05 01:15:12;;;;;;;11.20;10.10;;;19.80;99.90;;;;;;5032800;28;20178;-82
2022/06/05 01:18:02;;;;;;;14.15;11.93;;;19.70;99.90;;;;;;5032659;28;20258;-81
2022/06/05 01:20:56;;;;;;;13.02;10.93;;;19.90;99.90;;;;;;5032165;28;20238;-81
2022/06/05 01:23:41;;;;;;;13.10;11.90;;;20.00;99.90;;;;;;5033126;28;20187;-82
2022/06/05 01:26:37;;;;;;;12.82;11.55;;;19.90;99.90;;;;;;5032706;28;20614;-82
2022/06/05 01:29:12;;;;;;;12.63;11.52;;;19.80;99.90;;;;;;5032422;28;20207;-81
2022/06/05 01:31:50;;;;;;;14.18;11.05;;;19.80;99.90;;;;;;5032517;28;20167;-81
2022/06/05 01:34:35;;;;;;;12.57;11.55;;;19.70;99.90;;;;;;5038743;28;20159;-82
2022/06/05 01:37:29;;;;;;;12.35;10.80;;;19.70;99.90;;;;;;5033455;28;20176;-82
2022/06/05 01:40:09;;;;;;;12.50;10.95;;;19.60;99.90;;;;;;5033622;28;20203;-82
2022/06/05 01:42:39;;;;;;;12.07;11.15;;;19.50;99.90;;;;;;5033539;28;20175;-82
2022/06/05 01:45:25;;;;;;;13.38;12.05;;;19.40;99.90;;;;;;5032486;28;20171;-81
2022/06/05 01:47:54;;;;;;;13.27;12.07;;;19.50;99.90;;;;;;5031695;28;20517;-81
2022/06/05 01:50:27;;;;;;;13.27;12.10;;;19.60;99.90;;;;;;5033398;28;20215;-81
2022/06/05 01:53:14;;;;;;;14.27;12.48;;;19.50;99.90;;;;;;5032109;28;20176;-81
2022/06/05 01:55:43;;;;;;;16.52;11.48;;;19.20;99.90;;;;;;5031477;28;20708;-82
2022/06/05 01:58:12;;;;;;;13.90;12.65;;;19.20;99.90;;;;;;5033127;28;20163;-81
2022/06/05 02:00:38;;;;;;;12.85;11.38;;;19.10;99.90;;;;;;5031893;28;20330;-80
2022/06/05 02:03:25;;;;;;;13.07;12.07;;;19.10;99.90;;;;;;5031999;28;21212;-81
2022/06/05 02:06:02;;;;;;;13.25;11.98;;;19.20;99.90;;;;;;5032708;28;20172;-81
2022/06/05 02:08:42;;;;;;;16.90;12.25;;;19.30;99.90;;;;;;5033174;28;20186;-81
2022/06/05 02:11:20;;;;;;;14.00;12.68;;;19.20;99.90;;;;;;5032045;28;20659;-81
2022/06/05 02:13:47;;;;;;;13.20;12.10;;;19.00;99.90;;;;;;5032751;28;20171;-81
2022/06/05 02:16:12;;;;;;;13.60;12.43;;;18.80;99.90;;;;;;5032800;28;20184;-81
2022/06/05 02:18:38;;;;;;;16.52;12.70;;;18.80;99.90;;;;;;5031800;28;20191;-81
2022/06/05 02:21:05;;;;;;;16.48;13.05;;;18.70;99.90;;;;;;5032716;28;20219;-81
2022/06/05 02:23:36;;;;;;;13.75;12.43;;;18.70;99.90;;;;;;5031595;28;20629;-81
2022/06/05 02:26:05;;;;;;;15.77;11.48;;;18.60;99.90;;;;;;5032815;28;20187;-81
2022/06/05 02:28:30;;;;;;;13.95;12.85;;;18.60;99.90;;;;;;5031501;28;20199;-81
2022/06/05 02:31:23;;;;;;;19.27;13.77;;;18.70;99.90;;;;;;5031449;28;20758;-81
2022/06/05 02:33:58;;;;;;;16.60;14.07;;;18.70;99.90;;;;;;5032494;28;20167;-81
2022/06/05 02:36:38;;;;;;;14.18;12.52;;;18.90;99.90;;;;;;5031107;28;20178;-81
2022/06/05 02:39:37;;;;;;;13.68;12.55;;;19.00;99.90;;;;;;5032344;28;20188;-81
2022/06/05 02:42:23;;;;;;;14.07;12.57;;;19.00;99.90;;;;;;5032330;28;20650;-82
2022/06/05 02:45:08;;;;;;;18.48;13.75;;;19.00;99.90;;;;;;5032154;28;20297;-81
2022/06/05 02:47:49;;;;;;;16.20;14.55;;;19.00;99.90;;;;;;5032289;28;20168;-81
2022/06/05 02:50:34;;;;;;;16.08;14.25;;;19.10;99.90;;;;;;5031968;28;20191;-81
2022/06/05 02:53:02;;;;;;;15.65;14.30;;;19.10;99.90;;;;;;5030833;28;20266;-81
2022/06/05 02:55:29;;;;;;;15.80;14.20;;;18.80;99.90;;;;;;5031154;28;20217;-81
2022/06/05 02:57:55;;;;;;;15.15;13.75;;;18.70;99.90;;;;;;5032050;28;20167;-81
2022/06/05 03:00:24;;;;;;;15.27;13.65;;;18.70;99.90;;;;;;5031787;28;20563;-82
2022/06/05 03:05:35;;;;;;;18.20;13.60;;;18.90;99.90;;;;;;5032285;28;20247;-81
2022/06/05 03:08:01;;;;;;;15.05;13.73;;;18.70;99.90;;;;;;5030957;28;20176;-81
2022/06/05 03:10:27;;;;;;;14.88;13.10;;;18.70;99.90;;;;;;5032195;28;20167;-81
2022/06/05 03:12:53;;;;;;;13.90;12.60;;;18.60;99.90;;;;;;5031064;28;20534;-80
2022/06/05 03:15:19;;;;;;;15.18;13.60;;;18.60;99.90;;;;;;5031839;28;20313;-81
2022/06/05 03:17:45;;;;;;;15.60;14.02;;;18.60;99.90;;;;;;5032184;28;20164;-82
2022/06/05 03:20:13;;;;;;;14.32;13.13;;;18.60;99.90;;;;;;5030603;28;20699;-81
2022/06/05 03:22:39;;;;;;;16.25;14.65;;;18.50;99.90;;;;;;5030665;28;20318;-81
2022/06/05 03:25:06;;;;;;;16.40;14.70;;;18.60;99.90;;;;;;5030965;28;20171;-81
2022/06/05 03:27:32;;;;;;;15.95;14.32;;;18.50;99.90;;;;;;5030694;28;20184;-81
2022/06/05 03:29:59;;;;;;;15.23;13.80;;;18.50;99.90;;;;;;5031912;28;20601;-81
2022/06/05 03:32:25;;;;;;;16.08;14.60;;;18.40;99.90;;;;;;5031654;28;20243;-81
2022/06/05 03:34:51;;;;;;;16.65;14.60;;;18.50;99.90;;;;;;5030981;28;20262;-81
2022/06/05 03:37:17;;;;;;;15.73;14.18;;;18.40;99.90;;;;;;5032086;28;20206;-81
2022/06/05 03:39:43;;;;;;;17.05;15.45;;;18.30;99.90;;;;;;5030390;28;20261;-81
2022/06/05 03:42:08;;;;;;;19.10;15.32;;;18.40;99.90;;;;;;5032315;28;20515;-81
2022/06/05 03:44:41;;;;;;;31.00;15.10;;;18.10;99.90;;;;;;5032031;28;20613;-81
2022/06/05 03:47:08;;;;;;;19.15;15.13;;;18.20;99.90;;;;;;5034247;28;20203;-82
2022/06/05 03:49:34;;;;;;;16.30;14.77;;;18.30;99.90;;;;;;5034104;28;20238;-81
2022/06/05 03:52:02;;;;;;;19.60;15.65;;;18.20;99.90;;;;;;5034320;28;20164;-81
2022/06/05 03:54:27;;;;;;;21.25;16.52;;;18.10;99.90;;;;;;5034504;28;20186;-81
2022/06/05 03:56:53;;;;;;;16.83;14.20;;;18.10;99.90;;;;;;5034136;28;20263;-81
2022/06/05 03:59:18;;;;;;;15.70;14.07;;;18.10;99.90;;;;;;5034010;28;20187;-81
2022/06/05 04:01:44;;;;;;;18.27;15.52;;;18.20;99.90;;;;;;5033840;28;20653;-81
2022/06/05 04:04:09;;;;;;;15.60;14.35;;;18.10;99.90;;;;;;5035215;28;20171;-81
2022/06/05 04:06:35;;;;;;;17.20;15.55;;;18.10;99.90;;;;;;5033869;28;20513;-81
2022/06/05 04:09:04;;;;;;;16.15;14.52;;;18.00;99.90;;;;;;5035140;28;20184;-81
2022/06/05 04:11:32;;;;;;;15.60;14.18;;;18.00;99.90;;;;;;5033560;28;20175;-81
2022/06/05 04:13:58;;;;;;;16.50;14.70;;;18.00;99.90;;;;;;5017624;28;20543;-81
2022/06/05 04:16:25;;;;;;;18.52;13.68;;;18.10;99.90;;;;;;5034102;28;20172;-80
2022/06/05 04:18:51;;;;;;;15.50;13.95;;;18.10;99.90;;;;;;5033815;28;20180;-81
2022/06/05 04:21:20;;;;;;;15.13;13.65;;;18.10;99.90;;;;;;5033995;28;20262;-81
2022/06/05 04:23:46;;;;;;;19.00;14.60;;;18.20;99.90;;;;;;5033843;28;20172;-81
2022/06/05 04:26:15;;;;;;;19.58;14.02;;;18.10;99.90;;;;;;5033835;28;20164;-81
2022/06/05 04:28:41;;;;;;;15.15;13.75;;;18.10;99.90;;;;;;5034702;28;20207;-81
2022/06/05 04:31:20;;;;;;;15.82;14.27;;;18.10;99.90;;;;;;5034867;28;20176;-81
2022/06/05 04:33:46;;;;;;;17.92;14.85;;;18.10;99.90;;;;;;5034736;28;20208;-81
2022/06/05 04:36:13;;;;;;;15.38;13.90;;;18.10;99.90;;;;;;5034688;28;20172;-81
2022/06/05 04:38:39;;;;;;;16.70;14.30;;;18.10;99.90;;;;;;5033265;28;20653;-81
2022/06/05 04:41:04;;;;;;;14.82;12.75;;;18.10;99.90;;;;;;5033041;28;20210;-81
2022/06/05 04:43:30;;;;;;;16.20;13.50;;;18.10;99.90;;;;;;5034574;28;20160;-81
2022/06/05 04:45:55;;;;;;;17.02;13.88;;;18.10;99.90;;;;;;5033418;28;20164;-81
2022/06/05 04:48:21;;;;;;;15.25;13.68;;;18.20;99.90;;;;;;5034595;28;20211;-81
2022/06/05 04:50:46;;;;;;;15.35;13.93;;;18.20;99.90;;;;;;5032819;28;20191;-81
2022/06/05 04:53:12;;;;;;;15.65;13.93;;;18.10;99.90;;;;;;5034273;28;20250;-81
2022/06/05 04:55:38;;;;;;;18.00;14.60;;;18.20;99.90;;;;;;5033073;28;20175;-81
2022/06/05 04:58:04;;;;;;;15.43;13.77;;;18.30;99.90;;;;;;5031649;28;20179;-81
2022/06/05 05:00:30;;;;;;;14.43;12.98;;;18.40;99.90;;;;;;5034088;28;20203;-81
2022/06/05 05:02:56;;;;;;;19.92;14.23;;;18.40;99.90;;;;;;5034297;28;20160;-81
2022/06/05 05:05:22;;;;;;;15.77;14.15;;;18.40;99.90;;;;;;5032960;28;20644;-81
2022/06/05 05:07:47;;;;;;;16.30;12.93;;;18.40;99.90;;;;;;5033041;28;20179;-80
2022/06/05 05:10:13;;;;;;;18.85;14.57;;;18.40;99.90;;;;;;5032834;28;20200;-81
2022/06/05 05:12:40;;;;;;;14.00;11.90;;;18.50;99.90;;;;;;5034301;28;20174;-81
2022/06/05 05:15:07;;;;;;;15.40;13.52;;;18.40;99.90;;;;;;5033322;28;20195;-81
2022/06/05 05:17:33;;;;;;;24.67;13.18;;;18.50;99.90;;;;;;5032715;28;20218;-81
2022/06/05 05:19:58;;;;;;;14.73;13.32;;;18.70;99.90;;;;;;5032679;28;20211;-81
2022/06/05 05:22:25;;;;;;;14.80;13.38;;;18.70;99.90;;;;;;5034201;28;20163;-82
2022/06/05 05:24:51;;;;;;;13.60;12.38;;;18.70;99.90;;;;;;5032788;28;20534;-81
2022/06/05 05:27:16;;;;;;;14.50;13.00;;;18.70;99.90;;;;;;5032425;28;20172;-82
2022/06/05 05:29:42;;;;;;;19.25;13.05;;;18.70;99.90;;;;;;5032092;28;20215;-82
2022/06/05 05:32:11;;;;;;;18.50;13.45;;;18.80;99.90;;;;;;5032572;28;20536;-83
2022/06/05 05:34:37;;;;;;;16.08;12.18;;;18.80;99.90;;;;;;5033902;28;20214;-83
2022/06/05 05:37:03;;;;;;;14.65;12.98;;;18.90;99.90;;;;;;5034333;28;20176;-83
2022/06/05 05:42:16;;;;;;;15.55;13.95;;;18.70;99.90;;;;;;5033984;28;20283;-80
2022/06/05 05:44:47;;;;;;;13.77;12.15;;;18.80;99.90;;;;;;5033428;28;20207;-80
2022/06/05 05:47:17;;;;;;;22.48;13.80;;;18.80;99.90;;;;;;5032373;28;20264;-84
2022/06/05 05:49:43;;;;;;;14.50;12.57;;;18.90;99.90;;;;;;5032219;28;20204;-81
2022/06/05 05:52:10;;;;;;;17.52;12.43;;;18.90;99.90;;;;;;5033684;28;20200;-84
2022/06/05 05:54:39;;;;;;;14.23;12.82;;;19.10;99.90;;;;;;5033191;28;20171;-82
2022/06/05 05:57:05;;;;;;;19.63;14.10;;;19.20;99.90;;;;;;5032067;28;20175;-80
2022/06/05 05:59:31;;;;;;;13.82;12.73;;;19.40;99.90;;;;;;5031457;28;20247;-83
2022/06/05 06:01:57;;;;;;;14.30;13.10;;;19.40;99.90;;;;;;5032816;28;20652;-81
2022/06/05 06:04:22;;;;;;;12.18;11.27;;;19.60;99.90;;;;;;5032096;28;20187;-81
2022/06/05 06:06:51;;;;;;;26.15;12.63;;;19.60;99.90;;;;;;5031785;28;20675;-81
2022/06/05 06:09:18;;;;;;;14.35;12.68;;;19.60;99.90;;;;;;5031420;28;20275;-80
2022/06/05 06:11:44;;;;;;;13.95;12.65;;;19.80;99.90;;;;;;5031732;28;20168;-81
2022/06/05 06:14:10;;;;;;;13.50;12.13;;;20.10;99.90;;;;;;5033013;28;20242;-81
2022/06/05 06:16:35;;;;;;;13.38;12.07;;;20.30;99.90;;;;;;5031743;28;20220;-80
2022/06/05 06:19:02;;;;;;;13.85;12.25;;;20.30;99.90;;;;;;5031390;28;20191;-81
2022/06/05 06:21:28;;;;;;;13.70;12.60;;;20.30;99.90;;;;;;5032847;28;20286;-80
2022/06/05 06:23:54;;;;;;;13.77;12.40;;;20.40;99.90;;;;;;5031403;28;20179;-81
2022/06/05 06:26:19;;;;;;;13.73;12.57;;;20.50;99.90;;;;;;5032942;28;20167;-80
2022/06/05 06:28:45;;;;;;;15.48;13.13;;;20.80;99.90;;;;;;5032499;28;20199;-80
2022/06/05 06:31:13;;;;;;;14.88;13.35;;;20.90;99.90;;;;;;5031179;28;20254;-79
2022/06/05 06:33:39;;;;;;;12.80;11.63;;;20.90;99.90;;;;;;5031106;28;20672;-80
2022/06/05 06:36:07;;;;;;;13.27;12.07;;;21.10;99.90;;;;;;5032692;28;20174;-81
2022/06/05 06:38:33;;;;;;;33.72;12.45;;;21.40;99.90;;;;;;5032429;28;20686;-80
2022/06/05 06:41:05;;;;;;;13.30;11.82;;;21.80;99.90;;;;;;5032495;28;20212;-80
2022/06/05 06:43:32;;;;;;;12.25;11.18;;;22.00;99.90;;;;;;5031271;28;20517;-80
2022/06/05 06:45:58;;;;;;;14.13;11.00;;;22.40;99.90;;;;;;5032750;28;20176;-81
2022/06/05 06:48:25;;;;;;;12.10;11.20;;;22.60;99.90;;;;;;5030887;28;20205;-81
2022/06/05 06:50:53;;;;;;;11.68;10.68;;;22.60;99.90;;;;;;5038456;28;20187;-86
2022/06/05 06:53:20;;;;;;;15.10;10.20;;;22.70;99.90;;;;;;5044225;28;20191;-88
2022/06/05 06:55:46;;;;;;;11.13;9.73;;;23.50;99.90;;;;;;5043634;28;20215;-87
2022/06/05 06:58:12;;;;;;;10.98;9.90;;;23.70;99.90;;;;;;5041042;28;20202;-89
2022/06/05 07:00:39;;;;;;;11.02;8.82;;;24.50;99.90;;;;;;5027921;28;20218;-90
2022/06/05 07:03:04;;;;;;;12.20;9.63;;;24.60;99.90;;;;;;5040372;28;20617;-91
2022/06/05 07:05:31;;;;;;;10.82;9.88;;;24.70;99.90;;;;;;5034560;28;20214;-92
2022/06/05 07:07:56;;;;;;;12.55;9.65;;;24.80;99.90;;;;;;5034195;28;20160;-93
2022/06/05 07:10:22;;;;;;;14.73;9.20;;;24.70;99.90;;;;;;5032454;28;20234;-85
2022/06/05 07:12:48;;;;;;;11.15;10.25;;;24.30;99.90;;;;;;5032736;28;20171;-85
2022/06/05 07:15:14;;;;;;;13.90;10.10;;;24.20;99.90;;;;;;5032523;28;20167;-86
2022/06/05 07:17:40;;;;;;;11.18;10.10;;;23.50;99.90;;;;;;5032948;28;20688;-84
2022/06/05 07:20:07;;;;;;;11.18;10.32;;;23.20;99.90;;;;;;5031084;28;20219;-84
2022/06/05 07:22:33;;;;;;;12.32;11.02;;;22.60;99.90;;;;;;5035754;28;20172;-86
2022/06/05 07:24:59;;;;;;;11.05;9.77;;;23.00;99.90;;;;;;5036308;28;20164;-88
2022/06/05 07:27:25;;;;;;;11.88;10.90;;;23.60;99.90;;;;;;5036322;28;20191;-83
2022/06/05 07:29:51;;;;;;;13.38;10.18;;;23.70;99.90;;;;;;5036816;28;20183;-82
2022/06/05 07:32:17;;;;;;;12.27;10.85;;;23.50;99.90;;;;;;5036845;28;20172;-87
2022/06/05 07:34:43;;;;;;;12.68;10.65;;;23.10;99.90;;;;;;5035089;28;20160;-85
2022/06/05 07:37:09;;;;;;;13.82;10.43;;;23.00;99.90;;;;;;5036271;28;20203;-85
2022/06/05 07:39:34;;;;;;;15.90;11.23;;;22.90;99.90;;;;;;5035131;28;20549;-86
2022/06/05 07:42:00;;;;;;;12.23;11.23;;;22.70;99.90;;;;;;5035374;28;20255;-87
2022/06/05 07:44:28;;;;;;;12.52;11.25;;;22.70;99.90;;;;;;5035068;28;20187;-86
2022/06/05 07:46:54;;;;;;;12.70;11.30;;;22.40;99.90;;;;;;5035161;28;20225;-84
2022/06/05 07:49:20;;;;;;;12.88;11.75;;;22.50;99.90;;;;;;5035118;28;20191;-85
2022/06/05 07:54:31;;;;;;;19.00;12.80;;;22.50;99.90;;;;;;5033613;28;20271;-86
2022/06/05 07:57:08;;;;;;;12.73;11.60;;;22.50;99.90;;;;;;5052175;28;20178;-88
2022/06/05 07:59:37;;;;;;;18.15;11.48;;;22.70;99.90;;;;;;5054845;28;20217;-88
2022/06/05 08:02:18;;;;;;;13.00;11.68;;;23.00;99.90;;;;;;5054416;28;20171;-87
2022/06/05 08:05:11;;;;;;;12.98;11.85;;;22.80;99.90;;;;;;5050231;28;20164;-91
2022/06/05 08:07:36;;;;;;;12.75;11.70;;;22.90;99.90;;;;;;5035055;28;20218;-88
2022/06/05 08:10:04;;;;;;;12.15;10.90;;;22.90;99.90;;;;;;5035010;28;20187;-91
2022/06/05 08:12:32;;;;;;;12.57;11.43;;;22.60;99.90;;;;;;5035189;28;20204;-91
2022/06/05 08:14:58;;;;;;;13.13;11.23;;;22.70;99.90;;;;;;5036994;28;20171;-89
2022/06/05 08:17:32;;;;;;;12.38;11.15;;;22.70;99.90;;;;;;5035490;28;20237;-85
2022/06/05 08:19:59;;;;;;;11.80;10.85;;;23.20;99.90;;;;;;5035215;28;20257;-87
2022/06/05 08:22:25;;;;;;;13.10;11.90;;;23.30;99.90;;;;;;5035082;28;20172;-87
2022/06/05 08:24:55;;;;;;;12.23;11.10;;;23.00;99.90;;;;;;5034766;28;20216;-87
2022/06/05 08:27:23;;;;;;;12.50;11.13;;;22.90;99.90;;;;;;5034622;28;20204;-87
2022/06/05 08:29:50;;;;;;;12.55;11.65;;;23.30;99.90;;;;;;5034441;28;20203;-88
2022/06/05 08:32:17;;;;;;;19.00;11.80;;;23.30;99.90;;;;;;5034473;28;20183;-88
2022/06/05 08:34:43;;;;;;;13.52;11.95;;;23.60;99.90;;;;;;5034287;28;20214;-86
2022/06/05 08:42:46;;;;;;;18.08;12.30;;;23.10;99.90;;;;;;5035999;28;20655;-87
2022/06/05 08:45:22;;;;;;;14.18;12.90;;;22.30;99.90;;;;;;5034174;28;20167;-86
2022/06/05 08:48:02;;;;;;;14.13;12.88;;;21.90;99.90;;;;;;5051035;28;20175;-86
2022/06/05 08:50:37;;;;;;;15.45;14.05;;;21.90;99.90;;;;;;5044248;28;20228;-88
2022/06/05 08:53:16;;;;;;;14.93;13.55;;;21.80;99.90;;;;;;5040897;28;20606;-85
2022/06/05 08:55:46;;;;;;;14.48;12.98;;;21.80;99.90;;;;;;5040138;28;20168;-85
2022/06/05 08:58:15;;;;;;;15.38;13.65;;;21.70;99.90;;;;;;5033462;28;20528;-86
2022/06/05 09:00:48;;;;;;;18.27;14.30;;;21.70;99.90;;;;;;5033147;28;20212;-87
2022/06/05 09:03:25;;;;;;;16.02;14.40;;;21.70;99.90;;;;;;5031070;28;20833;-87
2022/06/05 09:06:01;;;;;;;15.88;14.23;;;21.70;99.90;;;;;;5034097;28;20176;-86
2022/06/05 09:08:31;;;;;;;15.77;14.35;;;21.60;99.90;;;;;;5035306;28;20199;-85
2022/06/05 09:11:03;;;;;;;17.70;14.30;;;21.50;99.90;;;;;;5034156;28;20226;-88
2022/06/05 09:13:56;;;;;;;16.95;15.00;;;21.30;99.90;;;;;;5033401;28;20270;-87
2022/06/05 09:16:28;;;;;;;16.52;14.93;;;21.20;99.90;;;;;;5033259;28;20191;-86
2022/06/05 09:18:54;;;;;;;20.17;15.23;;;21.30;99.90;;;;;;5033450;28;20929;-85
2022/06/05 09:21:30;;;;;;;21.05;14.82;;;21.30;99.90;;;;;;5034548;28;20203;-88
2022/06/05 09:24:23;;;;;;;15.82;14.55;;;21.30;99.90;;;;;;5033054;28;20175;-82
2022/06/05 09:26:54;;;;;;;18.85;15.75;;;21.30;99.90;;;;;;5033481;28;20583;-85
2022/06/05 09:29:27;;;;;;;18.80;16.88;;;21.50;99.90;;;;;;5031769;28;20302;-85
2022/06/05 09:32:09;;;;;;;26.70;17.50;;;21.50;99.90;;;;;;5034270;28;20177;-83
2022/06/05 09:34:40;;;;;;;22.50;17.75;;;21.20;99.90;;;;;;5033902;28;20171;-82
2022/06/05 09:37:35;;;;;;;18.10;16.15;;;21.10;99.90;;;;;;5032556;28;20684;-84
2022/06/05 09:40:13;;;;;;;20.48;17.48;;;21.10;99.90;;;;;;5032192;28;20204;-83
2022/06/05 09:42:54;;;;;;;18.20;16.48;;;21.30;99.90;;;;;;5031360;28;20198;-83
2022/06/05 09:45:33;;;;;;;20.17;17.70;;;21.30;99.90;;;;;;5031432;28;20172;-83
2022/06/05 09:48:35;;;;;;;22.73;16.73;;;21.20;99.90;;;;;;5032529;28;20214;-82
2022/06/05 09:51:02;;;;;;;21.60;17.58;;;21.30;99.90;;;;;;5031999;28;20270;-83
2022/06/05 09:53:34;;;;;;;18.35;16.50;;;21.20;99.90;;;;;;5031812;28;20221;-84
2022/06/05 09:56:34;;;;;;;24.98;18.10;;;21.40;99.90;;;;;;5032304;28;20604;-83
2022/06/05 09:59:20;;;;;;;19.25;17.27;;;21.40;99.90;;;;;;5032056;28;20226;-82
2022/06/05 10:01:54;;;;;;;20.20;18.08;;;21.30;99.90;;;;;;5033260;28;20221;-83
2022/06/05 10:04:22;;;;;;;20.35;18.23;;;21.20;99.90;;;;;;5031817;28;20263;-83
2022/06/05 10:06:54;;;;;;;24.23;17.40;;;20.90;99.90;;;;;;5033181;28;20171;-82
2022/06/05 10:09:23;;;;;;;21.67;18.00;;;20.90;99.90;;;;;;5032097;28;20549;-82
2022/06/05 10:11:58;;;;;;;19.70;17.80;;;20.90;99.90;;;;;;5032031;28;20164;-82
2022/06/05 10:14:52;;;;;;;22.98;17.95;;;21.10;99.90;;;;;;5031928;28;20642;-82
2022/06/05 10:17:42;;;;;;;24.40;18.58;;;21.20;99.90;;;;;;5032104;28;20257;-81
2022/06/05 10:20:13;;;;;;;20.90;18.95;;;21.10;99.90;;;;;;5032710;28;20672;-83
2022/06/05 10:22:39;;;;;;;28.10;20.85;;;20.90;99.90;;;;;;5031795;28;20164;-81
2022/06/05 10:25:34;;;;;;;23.98;21.13;;;20.80;99.90;;;;;;5032707;28;20167;-81
2022/06/05 10:28:05;;;;;;;30.35;21.15;;;20.60;99.90;;;;;;5031515;28;20720;-83
2022/06/05 10:30:35;;;;;;;22.17;19.80;;;20.40;99.90;;;;;;5031620;28;20179;-82
2022/06/05 10:33:16;;;;;;;30.08;19.85;;;20.40;99.90;;;;;;5031300;28;20496;-82
2022/06/05 10:36:03;;;;;;;23.02;19.17;;;20.50;99.90;;;;;;5032848;28;20174;-82
2022/06/05 10:38:52;;;;;;;30.50;21.42;;;20.50;99.90;;;;;;5031383;28;20524;-81
2022/06/05 10:41:27;;;;;;;23.70;21.02;;;20.70;99.90;;;;;;5031465;28;20208;-82
2022/06/05 10:44:23;;;;;;;26.33;21.38;;;20.50;99.90;;;;;;5032463;28;20163;-84
2022/06/05 10:47:01;;;;;;;29.92;22.55;;;20.50;99.90;;;;;;5031487;28;20176;-84
2022/06/05 10:49:46;;;;;;;26.38;23.08;;;20.40;99.90;;;;;;5032330;28;20289;-83
2022/06/05 10:52:47;;;;;;;30.42;24.05;;;20.40;99.90;;;;;;5031415;28;20172;-82
2022/06/05 10:55:30;;;;;;;31.85;23.52;;;20.30;99.90;;;;;;5015609;28;20230;-84
2022/06/05 10:57:59;;;;;;;38.15;25.23;;;20.00;99.90;;;;;;5031331;28;20183;-82
2022/06/05 11:00:53;;;;;;;34.30;25.48;;;19.90;99.90;;;;;;5030947;28;20756;-82
2022/06/05 11:03:33;;;;;;;32.05;24.63;;;19.80;99.90;;;;;;5010717;28;20183;-83
2022/06/05 11:06:28;;;;;;;37.65;26.15;;;19.90;99.90;;;;;;5032593;28;20176;-83
2022/06/05 11:09:00;;;;;;;28.38;24.15;;;19.80;99.90;;;;;;5032597;28;20173;-83
2022/06/05 11:14:46;;;;;;;36.67;25.25;;;19.50;99.90;;;;;;5033232;28;20251;-82
2022/06/05 11:17:35;;;;;;;35.65;25.25;;;19.50;99.90;;;;;;5032445;28;20164;-82
2022/06/05 11:20:30;;;;;;;28.00;24.35;;;19.60;99.90;;;;;;5030685;28;20216;-82
2022/06/05 11:23:04;;;;;;;31.40;24.55;;;19.30;99.90;;;;;;5022911;28;20176;-82
2022/06/05 11:25:59;;;;;;;33.35;24.10;;;19.20;99.90;;;;;;5030750;28;20187;-82
2022/06/05 11:29:01;;;;;;;34.92;25.77;;;19.20;99.90;;;;;;5030542;28;20207;-82
2022/06/05 11:31:47;;;;;;;39.72;26.40;;;19.20;99.90;;;;;;5032144;28;20167;-82
2022/06/05 11:34:24;;;;;;;29.65;26.27;;;19.30;99.90;;;;;;5023928;28;20655;-82
2022/06/05 11:36:52;;;;;;;36.55;27.08;;;19.30;99.90;;;;;;5031965;28;20160;-82
2022/06/05 11:39:21;;;;;;;34.65;27.02;;;19.40;99.90;;;;;;5030947;28;20296;-83
2022/06/05 11:42:05;;;;;;;32.38;26.92;;;19.40;99.90;;;;;;5032243;28;20231;-83
2022/06/05 11:44:44;;;;;;;36.45;27.67;;;19.40;99.90;;;;;;5030886;28;20171;-82
2022/06/05 11:47:29;;;;;;;40.15;28.42;;;19.40;99.90;;;;;;5031004;28;20178;-82
2022/06/05 11:50:30;;;;;;;37.22;27.95;;;19.40;99.90;;;;;;5030971;28;20223;-82
2022/06/05 11:53:18;;;;;;;36.95;27.05;;;19.50;99.90;;;;;;5020556;28;20210;-82
2022/06/05 11:55:59;;;;;;;38.60;26.90;;;19.50;99.90;;;;;;5030625;28;20174;-83
2022/06/05 11:58:40;;;;;;;35.38;27.88;;;19.50;99.90;;;;;;5030711;28;20230;-82
2022/06/05 12:01:13;;;;;;;31.23;26.42;;;19.40;99.90;;;;;;5031719;28;20282;-82
2022/06/05 12:04:10;;;;;;;39.80;26.80;;;19.40;99.90;;;;;;5030656;28;20199;-82
2022/06/05 12:06:45;;;;;;;27.90;22.98;;;19.30;99.90;;;;;;5030039;28;20230;-82
2022/06/05 12:09:40;;;;;;;25.50;22.85;;;19.20;99.90;;;;;;5035080;28;20191;-83
2022/06/05 12:12:25;;;;;;;27.00;23.05;;;19.20;99.90;;;;;;5035503;28;20740;-83
2022/06/05 12:15:22;;;;;;;29.38;23.50;;;19.20;99.90;;;;;;5034251;28;20164;-82
2022/06/05 12:18:01;;;;;;;30.02;24.15;;;19.10;99.90;;;;;;5035757;28;20282;-83
2022/06/05 12:20:46;;;;;;;27.77;23.20;;;19.20;99.90;;;;;;5035634;28;20207;-82
2022/06/05 12:23:28;;;;;;;31.27;23.88;;;19.20;99.90;;;;;;5034042;28;20179;-82
2022/06/05 12:26:00;;;;;;;26.70;23.67;;;19.20;99.90;;;;;;5033998;28;20254;-83
2022/06/05 12:28:31;;;;;;;28.80;24.25;;;19.30;99.90;;;;;;5034882;28;20199;-82
2022/06/05 12:31:20;;;;;;;32.63;24.63;;;19.30;99.90;;;;;;5034178;28;20647;-82
2022/06/05 12:33:58;;;;;;;36.42;26.30;;;19.40;99.90;;;;;;5024716;28;20667;-81
2022/06/05 12:36:41;;;;;;;35.90;28.80;;;19.60;99.90;;;;;;5033806;28;20167;-82
2022/06/05 12:39:26;;;;;;;39.53;27.85;;;19.70;99.90;;;;;;5034931;28;20194;-82
2022/06/05 12:42:13;;;;;;;33.28;27.17;;;19.70;99.90;;;;;;5033836;28;20203;-82
2022/06/05 12:44:43;;;;;;;31.90;25.60;;;19.80;99.90;;;;;;5034101;28;20183;-83
2022/06/05 12:47:44;;;;;;;32.45;24.58;;;19.90;99.90;;;;;;5035539;28;20270;-82
2022/06/05 12:50:47;;;;;;;28.75;21.50;;;20.20;99.90;;;;;;5027535;28;20215;-82
2022/06/05 12:53:36;;;;;;;25.13;20.25;;;20.40;99.90;;;;;;5035547;28;20175;-83
2022/06/05 12:56:18;;;;;;;23.77;19.27;;;20.20;99.90;;;;;;5033167;28;20194;-82
2022/06/05 12:58:55;;;;;;;22.92;19.67;;;20.00;99.90;;;;;;5033287;28;20192;-82
2022/06/05 13:01:37;;;;;;;23.13;18.85;;;20.10;99.90;;;;;;5033261;28;20212;-83
2022/06/05 13:04:29;;;;;;;22.02;19.48;;;20.10;99.90;;;;;;5033367;28;20163;-83
2022/06/05 13:06:58;;;;;;;27.80;20.92;;;20.00;99.90;;;;;;5027755;28;20180;-82
2022/06/05 13:09:39;;;;;;;24.65;20.23;;;20.00;99.90;;;;;;5032950;28;20222;-82
2022/06/05 13:12:08;;;;;;;24.50;19.23;;;20.00;99.90;;;;;;5033212;28;20583;-83
2022/06/05 13:15:05;;;;;;;23.70;20.00;;;20.20;99.90;;;;;;5033099;28;20178;-83
2022/06/05 13:17:46;;;;;;;25.23;20.23;;;20.20;99.90;;;;;;5033228;28;20182;-83
2022/06/05 13:20:24;;;;;;;27.35;20.45;;;20.20;99.90;;;;;;5031875;28;20298;-83